sensor_id;sensor_type;location;lat;lon;timestamp;P1;durP1;ratioP1;P2;durP2;ratioP2
35304;SDS011;26433;48.034;-1.764;2023-02-04T06:02:03;0.20;;;0.20;;
35304;SDS011;26433;48.034;-1.764;2023-02-04T06:07:07;3.40;;;0.35;;
35304;SDS011;26433;48.034;-1.764;2023-02-04T06:12:11;0.47;;;0.30;;
35304;SDS011;26433;48.034;-1.764;2023-02-04T06:17:15;1.43;;;0.40;;
35304;SDS011;26433;48.034;-1.764;2023-02-04T06:22:19;1.02;;;0.40;;
35304;SDS011;26433;48.034;-1.764;2023-02-04T06:27:25;0.52;;;0.32;;
35304;SDS011;26433;48.034;-1.764;2023-02-04T06:32:30;1.27;;;0.43;;
35304;SDS011;26433;48.034;-1.764;2023-02-04T06:37:33;1.70;;;0.50;;
35304;SDS011;26433;48.034;-1.764;2023-02-04T06:42:37;0.70;;;0.40;;
35304;SDS011;26433;48.034;-1.764;2023-02-04T06:47:42;3.53;;;0.63;;
35304;SDS011;26433;48.034;-1.764;2023-02-04T06:52:45;0.82;;;0.40;;
35304;SDS011;26433;48.034;-1.764;2023-02-04T06:57:49;1.00;;;0.47;;
35304;SDS011;26433;48.034;-1.764;2023-02-04T07:02:54;2.13;;;0.83;;
35304;SDS011;26433;48.034;-1.764;2023-02-04T07:07:59;0.88;;;0.40;;
35304;SDS011;26433;48.034;-1.764;2023-02-04T07:13:03;0.80;;;0.50;;
35304;SDS011;26433;48.034;-1.764;2023-02-04T07:18:08;1.17;;;0.53;;
35304;SDS011;26433;48.034;-1.764;2023-02-04T07:23:11;1.58;;;0.57;;
35304;SDS011;26433;48.034;-1.764;2023-02-04T07:28:15;1.98;;;0.52;;
35304;SDS011;26433;48.034;-1.764;2023-02-04T07:33:20;2.45;;;0.85;;
35304;SDS011;26433;48.034;-1.764;2023-02-04T07:38:24;0.80;;;0.57;;
35304;SDS011;26433;48.034;-1.764;2023-02-04T07:43:27;0.90;;;0.63;;
35304;SDS011;26433;48.034;-1.764;2023-02-04T07:48:32;0.90;;;0.60;;
35304;SDS011;26433;48.034;-1.764;2023-02-04T07:53:36;1.42;;;0.65;;
35304;SDS011;26433;48.034;-1.764;2023-02-04T07:58:40;4.27;;;1.43;;
35304;SDS011;26433;48.034;-1.764;2023-02-04T08:03:45;0.60;;;0.50;;
35304;SDS011;26433;48.034;-1.764;2023-02-04T08:08:48;0.90;;;0.55;;
35304;SDS011;26433;48.034;-1.764;2023-02-04T08:13:52;0.87;;;0.60;;
35304;SDS011;26433;48.034;-1.764;2023-02-04T08:18:57;0.73;;;0.53;;
35304;SDS011;26433;48.034;-1.764;2023-02-04T08:24:00;1.20;;;0.70;;
35304;SDS011;26433;48.034;-1.764;2023-02-04T08:29:04;0.80;;;0.53;;
35304;SDS011;26433;48.034;-1.764;2023-02-04T08:34:09;3.80;;;0.77;;
35304;SDS011;26433;48.034;-1.764;2023-02-04T08:39:13;1.08;;;0.70;;
35304;SDS011;26433;48.034;-1.764;2023-02-04T08:44:16;1.67;;;0.97;;
35304;SDS011;26433;48.034;-1.764;2023-02-04T08:49:21;1.03;;;0.73;;
35304;SDS011;26433;48.034;-1.764;2023-02-04T08:54:25;1.05;;;0.50;;
35304;SDS011;26433;48.034;-1.764;2023-02-04T08:59:31;3.87;;;0.82;;
35304;SDS011;26433;48.034;-1.764;2023-02-04T09:04:36;5.07;;;0.87;;
35304;SDS011;26433;48.034;-1.764;2023-02-04T09:09:40;2.05;;;0.80;;
35304;SDS011;26433;48.034;-1.764;2023-02-04T09:14:43;0.77;;;0.60;;
35304;SDS011;26433;48.034;-1.764;2023-02-04T09:19:48;1.27;;;0.57;;
35304;SDS011;26433;48.034;-1.764;2023-02-04T09:24:52;6.45;;;1.15;;
35304;SDS011;26433;48.034;-1.764;2023-02-04T09:29:55;1.37;;;0.60;;
35304;SDS011;26433;48.034;-1.764;2023-02-04T09:35:00;2.33;;;0.97;;
35304;SDS011;26433;48.034;-1.764;2023-02-04T09:40:04;2.10;;;0.90;;
35304;SDS011;26433;48.034;-1.764;2023-02-04T09:45:09;3.95;;;0.65;;
35304;SDS011;26433;48.034;-1.764;2023-02-04T09:50:19;1.10;;;0.82;;
35304;SDS011;26433;48.034;-1.764;2023-02-04T09:55:26;2.03;;;0.90;;
35304;SDS011;26433;48.034;-1.764;2023-02-04T10:00:33;1.75;;;1.00;;
35304;SDS011;26433;48.034;-1.764;2023-02-04T10:05:38;2.95;;;0.82;;
35304;SDS011;26433;48.034;-1.764;2023-02-04T10:10:42;4.82;;;0.80;;
35304;SDS011;26433;48.034;-1.764;2023-02-04T10:15:47;1.90;;;0.80;;
35304;SDS011;26433;48.034;-1.764;2023-02-04T10:20:54;2.30;;;1.08;;
35304;SDS011;26433;48.034;-1.764;2023-02-04T10:26:02;2.17;;;0.88;;
35304;SDS011;26433;48.034;-1.764;2023-02-04T10:31:10;2.20;;;1.15;;
35304;SDS011;26433;48.034;-1.764;2023-02-04T10:36:35;1.75;;;0.80;;
35304;SDS011;26433;48.034;-1.764;2023-02-04T10:41:43;3.85;;;0.80;;
35304;SDS011;26433;48.034;-1.764;2023-02-04T10:46:57;1.83;;;0.70;;
35304;SDS011;26433;48.034;-1.764;2023-02-04T10:52:05;1.70;;;0.95;;
35304;SDS011;26433;48.034;-1.764;2023-02-04T10:57:19;1.10;;;0.70;;
35304;SDS011;26433;48.034;-1.764;2023-02-04T11:07:47;1.52;;;0.88;;
35304;SDS011;26433;48.034;-1.764;2023-02-04T11:13:02;0.65;;;0.52;;
35304;SDS011;26433;48.034;-1.764;2023-02-04T11:18:07;3.45;;;0.52;;
35304;SDS011;26433;48.034;-1.764;2023-02-04T11:23:28;3.03;;;0.65;;
35304;SDS011;26433;48.034;-1.764;2023-02-04T11:34:23;2.12;;;0.40;;
35304;SDS011;26433;48.034;-1.764;2023-02-04T11:39:32;0.88;;;0.52;;
35304;SDS011;26433;48.034;-1.764;2023-02-04T11:44:38;1.90;;;0.65;;
35304;SDS011;26433;48.034;-1.764;2023-02-04T11:49:41;2.20;;;0.60;;
35304;SDS011;26433;48.034;-1.764;2023-02-04T11:54:53;2.83;;;0.52;;
35304;SDS011;26433;48.034;-1.764;2023-02-04T11:59:58;0.40;;;0.40;;
35304;SDS011;26433;48.034;-1.764;2023-02-04T12:05:12;1.40;;;0.60;;
35304;SDS011;26433;48.034;-1.764;2023-02-04T12:10:25;0.57;;;0.55;;
35304;SDS011;26433;48.034;-1.764;2023-02-04T12:15:30;0.30;;;0.30;;
35304;SDS011;26433;48.034;-1.764;2023-02-04T12:20:37;1.48;;;0.57;;
35304;SDS011;26433;48.034;-1.764;2023-02-04T12:25:42;0.40;;;0.40;;
35304;SDS011;26433;48.034;-1.764;2023-02-04T12:30:46;1.95;;;0.50;;
35304;SDS011;26433;48.034;-1.764;2023-02-04T12:35:49;0.40;;;0.33;;
35304;SDS011;26433;48.034;-1.764;2023-02-04T12:40:54;0.30;;;0.30;;
35304;SDS011;26433;48.034;-1.764;2023-02-04T12:45:58;0.40;;;0.40;;
35304;SDS011;26433;48.034;-1.764;2023-02-04T12:51:02;0.97;;;0.47;;
35304;SDS011;26433;48.034;-1.764;2023-02-04T12:56:07;1.42;;;0.47;;
35304;SDS011;26433;48.034;-1.764;2023-02-04T13:01:11;0.57;;;0.25;;
35304;SDS011;26433;48.034;-1.764;2023-02-04T13:06:14;0.30;;;0.30;;
35304;SDS011;26433;48.034;-1.764;2023-02-04T13:11:19;0.43;;;0.30;;
35304;SDS011;26433;48.034;-1.764;2023-02-04T13:16:23;3.12;;;0.37;;
35304;SDS011;26433;48.034;-1.764;2023-02-04T13:21:27;0.50;;;0.30;;
35304;SDS011;26433;48.034;-1.764;2023-02-04T13:26:33;0.13;;;0.13;;
35304;SDS011;26433;48.034;-1.764;2023-02-04T13:31:37;0.50;;;0.20;;
35304;SDS011;26433;48.034;-1.764;2023-02-04T13:36:40;0.60;;;0.23;;
35304;SDS011;26433;48.034;-1.764;2023-02-04T13:41:46;0.82;;;0.40;;
35304;SDS011;26433;48.034;-1.764;2023-02-04T13:46:50;0.50;;;0.50;;
35304;SDS011;26433;48.034;-1.764;2023-02-04T13:51:54;0.30;;;0.30;;
35304;SDS011;26433;48.034;-1.764;2023-02-04T13:56:59;0.30;;;0.30;;
35304;SDS011;26433;48.034;-1.764;2023-02-04T14:02:02;0.60;;;0.55;;
35304;SDS011;26433;48.034;-1.764;2023-02-04T14:07:06;0.40;;;0.40;;
35304;SDS011;26433;48.034;-1.764;2023-02-04T14:12:11;0.97;;;0.20;;
35304;SDS011;26433;48.034;-1.764;2023-02-04T14:17:15;0.45;;;0.32;;
35304;SDS011;26433;48.034;-1.764;2023-02-04T14:22:18;0.40;;;0.23;;
35304;SDS011;26433;48.034;-1.764;2023-02-04T14:27:24;0.22;;;0.20;;
35304;SDS011;26433;48.034;-1.764;2023-02-04T14:32:28;1.70;;;0.50;;
35304;SDS011;26433;48.034;-1.764;2023-02-04T14:37:31;1.17;;;0.40;;
35304;SDS011;26433;48.034;-1.764;2023-02-04T14:42:36;5.60;;;0.50;;
35304;SDS011;26433;48.034;-1.764;2023-02-04T14:47:40;1.10;;;0.62;;
35304;SDS011;26433;48.034;-1.764;2023-02-04T14:52:44;0.60;;;0.53;;
35304;SDS011;26433;48.034;-1.764;2023-02-04T14:57:49;1.07;;;0.63;;
35304;SDS011;26433;48.034;-1.764;2023-02-04T15:02:52;0.30;;;0.30;;
35304;SDS011;26433;48.034;-1.764;2023-02-04T15:07:56;0.70;;;0.40;;
35304;SDS011;26433;48.034;-1.764;2023-02-04T15:13:01;0.83;;;0.60;;
35304;SDS011;26433;48.034;-1.764;2023-02-04T15:18:05;0.70;;;0.60;;
35304;SDS011;26433;48.034;-1.764;2023-02-04T15:23:08;1.70;;;0.77;;
35304;SDS011;26433;48.034;-1.764;2023-02-04T15:28:15;5.18;;;0.60;;
35304;SDS011;26433;48.034;-1.764;2023-02-04T15:33:18;2.65;;;1.23;;
35304;SDS011;26433;48.034;-1.764;2023-02-04T15:38:22;9.47;;;0.80;;
35304;SDS011;26433;48.034;-1.764;2023-02-04T15:43:27;6.90;;;1.25;;
35304;SDS011;26433;48.034;-1.764;2023-02-04T15:48:31;2.42;;;0.65;;
35304;SDS011;26433;48.034;-1.764;2023-02-04T15:53:35;1.03;;;0.80;;
35304;SDS011;26433;48.034;-1.764;2023-02-04T15:58:40;1.83;;;0.70;;
35304;SDS011;26433;48.034;-1.764;2023-02-04T16:03:43;2.45;;;0.90;;
35304;SDS011;26433;48.034;-1.764;2023-02-04T16:08:47;4.97;;;1.77;;
35304;SDS011;26433;48.034;-1.764;2023-02-04T16:13:55;4.73;;;1.23;;
35304;SDS011;26433;48.034;-1.764;2023-02-04T16:18:59;3.08;;;0.65;;
35304;SDS011;26433;48.034;-1.764;2023-02-04T16:24:03;1.50;;;0.57;;
35304;SDS011;26433;48.034;-1.764;2023-02-04T16:29:08;0.93;;;0.50;;
35304;SDS011;26433;48.034;-1.764;2023-02-04T16:34:12;2.12;;;0.40;;
35304;SDS011;26433;48.034;-1.764;2023-02-04T16:39:16;5.87;;;1.37;;
35304;SDS011;26433;48.034;-1.764;2023-02-04T16:44:21;7.37;;;1.43;;
35304;SDS011;26433;48.034;-1.764;2023-02-04T16:49:25;9.55;;;1.08;;
35304;SDS011;26433;48.034;-1.764;2023-02-04T16:54:29;4.82;;;0.50;;
35304;SDS011;26433;48.034;-1.764;2023-02-04T16:59:34;0.60;;;0.60;;
35304;SDS011;26433;48.034;-1.764;2023-02-04T17:04:39;2.28;;;1.05;;
35304;SDS011;26433;48.034;-1.764;2023-02-04T17:09:42;0.90;;;0.70;;
35304;SDS011;26433;48.034;-1.764;2023-02-04T17:14:47;1.03;;;0.43;;
35304;SDS011;26433;48.034;-1.764;2023-02-04T17:19:51;0.40;;;0.32;;
35304;SDS011;26433;48.034;-1.764;2023-02-04T17:24:55;0.83;;;0.40;;
35304;SDS011;26433;48.034;-1.764;2023-02-04T17:29:59;4.00;;;0.50;;
35304;SDS011;26433;48.034;-1.764;2023-02-04T17:35:03;1.00;;;0.65;;
35304;SDS011;26433;48.034;-1.764;2023-02-04T17:40:08;2.10;;;0.88;;
35304;SDS011;26433;48.034;-1.764;2023-02-04T17:45:16;0.50;;;0.47;;
35304;SDS011;26433;48.034;-1.764;2023-02-04T17:50:19;1.10;;;0.95;;
35304;SDS011;26433;48.034;-1.764;2023-02-04T17:55:24;6.47;;;0.90;;
35304;SDS011;26433;48.034;-1.764;2023-02-04T18:00:30;0.90;;;0.60;;
35304;SDS011;26433;48.034;-1.764;2023-02-04T18:05:35;0.73;;;0.68;;
35304;SDS011;26433;48.034;-1.764;2023-02-04T18:10:40;0.40;;;0.40;;
35304;SDS011;26433;48.034;-1.764;2023-02-04T18:15:48;3.90;;;0.50;;
35304;SDS011;26433;48.034;-1.764;2023-02-04T18:20:57;2.85;;;0.68;;
35304;SDS011;26433;48.034;-1.764;2023-02-04T18:26:05;2.40;;;1.10;;
35304;SDS011;26433;48.034;-1.764;2023-02-04T18:31:23;2.67;;;1.25;;
35304;SDS011;26433;48.034;-1.764;2023-02-04T18:36:35;0.73;;;0.60;;
35304;SDS011;26433;48.034;-1.764;2023-02-04T18:41:39;2.42;;;1.08;;
35304;SDS011;26433;48.034;-1.764;2023-02-04T18:46:47;1.20;;;1.10;;
35304;SDS011;26433;48.034;-1.764;2023-02-04T18:51:51;1.40;;;0.90;;
35304;SDS011;26433;48.034;-1.764;2023-02-04T18:56:59;2.40;;;0.93;;
35304;SDS011;26433;48.034;-1.764;2023-02-04T19:02:24;1.30;;;1.00;;
35304;SDS011;26433;48.034;-1.764;2023-02-04T19:07:37;2.70;;;1.40;;
35304;SDS011;26433;48.034;-1.764;2023-02-04T19:12:41;2.77;;;1.27;;
35304;SDS011;26433;48.034;-1.764;2023-02-04T19:17:46;3.28;;;1.50;;
35304;SDS011;26433;48.034;-1.764;2023-02-04T19:22:50;1.85;;;1.02;;
35304;SDS011;26433;48.034;-1.764;2023-02-04T19:27:56;2.40;;;1.12;;
35304;SDS011;26433;48.034;-1.764;2023-02-04T19:33:09;2.92;;;1.00;;
35304;SDS011;26433;48.034;-1.764;2023-02-04T19:38:24;1.58;;;1.30;;
35304;SDS011;26433;48.034;-1.764;2023-02-04T19:43:40;3.90;;;1.30;;
35304;SDS011;26433;48.034;-1.764;2023-02-04T19:48:45;4.47;;;1.70;;
35304;SDS011;26433;48.034;-1.764;2023-02-04T19:53:50;6.30;;;1.62;;
35304;SDS011;26433;48.034;-1.764;2023-02-04T19:59:05;3.28;;;1.52;;
35304;SDS011;26433;48.034;-1.764;2023-02-04T20:04:25;2.30;;;1.40;;
35304;SDS011;26433;48.034;-1.764;2023-02-04T20:09:36;2.50;;;1.40;;
35304;SDS011;26433;48.034;-1.764;2023-02-04T20:14:43;1.83;;;1.40;;
35304;SDS011;26433;48.034;-1.764;2023-02-04T20:19:51;2.92;;;1.50;;
35304;SDS011;26433;48.034;-1.764;2023-02-04T20:24:55;2.80;;;1.52;;
35304;SDS011;26433;48.034;-1.764;2023-02-04T20:30:16;2.37;;;1.30;;
35304;SDS011;26433;48.034;-1.764;2023-02-04T20:41:22;3.65;;;1.70;;
35304;SDS011;26433;48.034;-1.764;2023-02-04T20:46:25;5.80;;;1.80;;
35304;SDS011;26433;48.034;-1.764;2023-02-04T20:51:30;3.73;;;1.83;;
35304;SDS011;26433;48.034;-1.764;2023-02-04T20:56:37;6.37;;;1.77;;
35304;SDS011;26433;48.034;-1.764;2023-02-04T21:01:43;4.10;;;1.95;;
35304;SDS011;26433;48.034;-1.764;2023-02-04T21:06:48;4.32;;;1.85;;
35304;SDS011;26433;48.034;-1.764;2023-02-04T21:11:54;4.55;;;1.90;;
35304;SDS011;26433;48.034;-1.764;2023-02-04T21:16:59;5.50;;;2.37;;
35304;SDS011;26433;48.034;-1.764;2023-02-04T21:22:03;2.83;;;1.45;;
35304;SDS011;26433;48.034;-1.764;2023-02-04T21:27:08;4.33;;;1.73;;
35304;SDS011;26433;48.034;-1.764;2023-02-04T21:32:11;3.53;;;1.92;;
35304;SDS011;26433;48.034;-1.764;2023-02-04T21:37:15;4.85;;;2.08;;
35304;SDS011;26433;48.034;-1.764;2023-02-04T21:42:20;1.87;;;1.50;;
35304;SDS011;26433;48.034;-1.764;2023-02-04T21:47:24;7.15;;;1.90;;
35304;SDS011;26433;48.034;-1.764;2023-02-04T21:52:28;7.97;;;2.10;;
35304;SDS011;26433;48.034;-1.764;2023-02-04T21:57:33;3.23;;;1.90;;
35304;SDS011;26433;48.034;-1.764;2023-02-04T22:02:36;3.25;;;1.55;;
35304;SDS011;26433;48.034;-1.764;2023-02-04T22:07:40;4.60;;;1.90;;
35304;SDS011;26433;48.034;-1.764;2023-02-04T22:12:45;4.17;;;2.07;;
35304;SDS011;26433;48.034;-1.764;2023-02-04T22:17:49;2.85;;;1.70;;
35304;SDS011;26433;48.034;-1.764;2023-02-04T22:22:54;3.08;;;1.73;;
35304;SDS011;26433;48.034;-1.764;2023-02-04T22:27:59;4.75;;;1.90;;
35304;SDS011;26433;48.034;-1.764;2023-02-04T22:33:03;5.80;;;2.33;;
35304;SDS011;26433;48.034;-1.764;2023-02-04T22:38:06;8.13;;;2.50;;
35304;SDS011;26433;48.034;-1.764;2023-02-04T22:43:11;6.13;;;2.53;;
35304;SDS011;26433;48.034;-1.764;2023-02-04T22:48:15;8.15;;;2.22;;
35304;SDS011;26433;48.034;-1.764;2023-02-04T22:53:19;4.93;;;2.33;;
35304;SDS011;26433;48.034;-1.764;2023-02-04T22:58:24;6.40;;;2.70;;
35304;SDS011;26433;48.034;-1.764;2023-02-04T23:03:27;4.82;;;2.55;;
35304;SDS011;26433;48.034;-1.764;2023-02-04T23:08:31;4.13;;;2.03;;
35304;SDS011;26433;48.034;-1.764;2023-02-04T23:13:36;4.53;;;1.80;;
35304;SDS011;26433;48.034;-1.764;2023-02-04T23:18:40;2.67;;;1.50;;
35304;SDS011;26433;48.034;-1.764;2023-02-04T23:23:44;3.80;;;2.13;;
35304;SDS011;26433;48.034;-1.764;2023-02-04T23:28:49;4.77;;;2.20;;
